sensor_id;sensor_type;location;lat;lon;timestamp;P1;durP1;ratioP1;P2;durP2;ratioP2
55148;SDS011;49539;48.160;11.530;2022-07-09T00:01:42;5.55;;;1.77;;
55148;SDS011;49539;48.160;11.530;2022-07-09T00:04:08;2.33;;;1.27;;
55148;SDS011;49539;48.160;11.530;2022-07-09T00:06:33;1.85;;;1.27;;
55148;SDS011;49539;48.160;11.530;2022-07-09T00:08:58;3.17;;;1.50;;
55148;SDS011;49539;48.160;11.530;2022-07-09T00:11:24;5.68;;;1.50;;
55148;SDS011;49539;48.160;11.530;2022-07-09T00:13:49;5.63;;;1.83;;
55148;SDS011;49539;48.160;11.530;2022-07-09T00:16:15;3.72;;;1.60;;
55148;SDS011;49539;48.160;11.530;2022-07-09T00:18:40;4.40;;;1.52;;
55148;SDS011;49539;48.160;11.530;2022-07-09T00:21:06;4.97;;;1.55;;
55148;SDS011;49539;48.160;11.530;2022-07-09T00:23:31;3.28;;;1.58;;
55148;SDS011;49539;48.160;11.530;2022-07-09T00:25:58;2.33;;;1.48;;
55148;SDS011;49539;48.160;11.530;2022-07-09T00:28:24;3.85;;;1.48;;
55148;SDS011;49539;48.160;11.530;2022-07-09T00:30:49;5.38;;;1.67;;
55148;SDS011;49539;48.160;11.530;2022-07-09T00:33:14;2.70;;;1.65;;
55148;SDS011;49539;48.160;11.530;2022-07-09T00:35:40;2.53;;;1.40;;
55148;SDS011;49539;48.160;11.530;2022-07-09T00:38:05;5.45;;;1.40;;
55148;SDS011;49539;48.160;11.530;2022-07-09T00:40:30;4.07;;;1.70;;
55148;SDS011;49539;48.160;11.530;2022-07-09T00:42:56;3.60;;;1.52;;
55148;SDS011;49539;48.160;11.530;2022-07-09T00:45:21;2.45;;;1.27;;
55148;SDS011;49539;48.160;11.530;2022-07-09T00:47:47;2.88;;;1.40;;
55148;SDS011;49539;48.160;11.530;2022-07-09T00:50:12;2.45;;;1.35;;
55148;SDS011;49539;48.160;11.530;2022-07-09T00:52:38;3.45;;;2.00;;
55148;SDS011;49539;48.160;11.530;2022-07-09T00:55:05;6.35;;;2.10;;
55148;SDS011;49539;48.160;11.530;2022-07-09T00:57:31;2.88;;;1.58;;
55148;SDS011;49539;48.160;11.530;2022-07-09T00:59:58;2.55;;;1.38;;
55148;SDS011;49539;48.160;11.530;2022-07-09T01:02:25;5.38;;;1.30;;
55148;SDS011;49539;48.160;11.530;2022-07-09T01:04:50;2.03;;;1.20;;
55148;SDS011;49539;48.160;11.530;2022-07-09T01:07:16;4.68;;;1.83;;
55148;SDS011;49539;48.160;11.530;2022-07-09T01:09:42;2.13;;;1.35;;
55148;SDS011;49539;48.160;11.530;2022-07-09T01:12:07;3.10;;;1.35;;
55148;SDS011;49539;48.160;11.530;2022-07-09T01:14:33;2.53;;;1.70;;
55148;SDS011;49539;48.160;11.530;2022-07-09T01:16:59;3.80;;;2.15;;
55148;SDS011;49539;48.160;11.530;2022-07-09T01:19:30;4.60;;;1.70;;
55148;SDS011;49539;48.160;11.530;2022-07-09T01:21:56;2.72;;;1.70;;
55148;SDS011;49539;48.160;11.530;2022-07-09T01:24:23;4.25;;;1.70;;
55148;SDS011;49539;48.160;11.530;2022-07-09T01:26:49;2.28;;;1.63;;
55148;SDS011;49539;48.160;11.530;2022-07-09T01:29:16;4.15;;;1.73;;
55148;SDS011;49539;48.160;11.530;2022-07-09T01:31:42;4.38;;;1.60;;
55148;SDS011;49539;48.160;11.530;2022-07-09T01:34:07;3.47;;;1.80;;
55148;SDS011;49539;48.160;11.530;2022-07-09T01:36:33;5.25;;;1.90;;
55148;SDS011;49539;48.160;11.530;2022-07-09T01:38:59;3.97;;;1.77;;
55148;SDS011;49539;48.160;11.530;2022-07-09T01:41:24;3.40;;;1.73;;
55148;SDS011;49539;48.160;11.530;2022-07-09T01:43:50;3.92;;;1.95;;
55148;SDS011;49539;48.160;11.530;2022-07-09T01:46:15;3.05;;;1.48;;
55148;SDS011;49539;48.160;11.530;2022-07-09T01:48:41;3.72;;;1.73;;
55148;SDS011;49539;48.160;11.530;2022-07-09T01:51:07;4.85;;;1.98;;
55148;SDS011;49539;48.160;11.530;2022-07-09T01:53:37;5.35;;;1.60;;
55148;SDS011;49539;48.160;11.530;2022-07-09T01:56:06;5.70;;;2.00;;
55148;SDS011;49539;48.160;11.530;2022-07-09T01:58:32;2.45;;;1.60;;
55148;SDS011;49539;48.160;11.530;2022-07-09T02:00:58;2.10;;;1.08;;
55148;SDS011;49539;48.160;11.530;2022-07-09T02:03:23;3.20;;;1.67;;
55148;SDS011;49539;48.160;11.530;2022-07-09T02:05:48;4.43;;;1.90;;
55148;SDS011;49539;48.160;11.530;2022-07-09T02:08:14;3.53;;;1.88;;
55148;SDS011;49539;48.160;11.530;2022-07-09T02:10:40;4.25;;;1.80;;
55148;SDS011;49539;48.160;11.530;2022-07-09T02:13:06;9.27;;;2.08;;
55148;SDS011;49539;48.160;11.530;2022-07-09T02:15:31;4.88;;;1.67;;
55148;SDS011;49539;48.160;11.530;2022-07-09T02:17:57;7.63;;;1.80;;
55148;SDS011;49539;48.160;11.530;2022-07-09T02:20:23;2.95;;;1.58;;
55148;SDS011;49539;48.160;11.530;2022-07-09T02:22:49;2.85;;;1.67;;
55148;SDS011;49539;48.160;11.530;2022-07-09T02:25:15;4.43;;;1.65;;
55148;SDS011;49539;48.160;11.530;2022-07-09T02:27:40;6.13;;;1.90;;
55148;SDS011;49539;48.160;11.530;2022-07-09T02:30:06;3.65;;;1.70;;
55148;SDS011;49539;48.160;11.530;2022-07-09T02:32:32;2.70;;;1.55;;
55148;SDS011;49539;48.160;11.530;2022-07-09T02:34:57;3.60;;;1.52;;
55148;SDS011;49539;48.160;11.530;2022-07-09T02:37:22;4.78;;;1.67;;
55148;SDS011;49539;48.160;11.530;2022-07-09T02:39:48;4.30;;;1.83;;
55148;SDS011;49539;48.160;11.530;2022-07-09T02:42:13;3.20;;;2.00;;
55148;SDS011;49539;48.160;11.530;2022-07-09T02:44:38;4.65;;;1.73;;
55148;SDS011;49539;48.160;11.530;2022-07-09T02:47:05;8.07;;;2.17;;
55148;SDS011;49539;48.160;11.530;2022-07-09T02:49:30;6.32;;;2.28;;
55148;SDS011;49539;48.160;11.530;2022-07-09T02:51:55;4.05;;;1.75;;
55148;SDS011;49539;48.160;11.530;2022-07-09T02:54:25;6.32;;;1.90;;
55148;SDS011;49539;48.160;11.530;2022-07-09T02:56:50;3.42;;;1.60;;
55148;SDS011;49539;48.160;11.530;2022-07-09T02:59:15;3.97;;;1.52;;
55148;SDS011;49539;48.160;11.530;2022-07-09T03:01:41;4.32;;;1.85;;
55148;SDS011;49539;48.160;11.530;2022-07-09T03:04:06;4.57;;;1.83;;
55148;SDS011;49539;48.160;11.530;2022-07-09T03:06:32;4.07;;;1.83;;
55148;SDS011;49539;48.160;11.530;2022-07-09T03:08:57;3.72;;;1.77;;
55148;SDS011;49539;48.160;11.530;2022-07-09T03:11:22;5.35;;;1.88;;
55148;SDS011;49539;48.160;11.530;2022-07-09T03:13:48;4.53;;;2.30;;
55148;SDS011;49539;48.160;11.530;2022-07-09T03:16:13;3.15;;;1.95;;
55148;SDS011;49539;48.160;11.530;2022-07-09T03:18:39;4.03;;;1.77;;
55148;SDS011;49539;48.160;11.530;2022-07-09T03:21:04;3.85;;;1.95;;
55148;SDS011;49539;48.160;11.530;2022-07-09T03:23:30;3.08;;;1.58;;
55148;SDS011;49539;48.160;11.530;2022-07-09T03:25:55;5.20;;;1.95;;
55148;SDS011;49539;48.160;11.530;2022-07-09T03:28:20;5.47;;;1.60;;
55148;SDS011;49539;48.160;11.530;2022-07-09T03:30:46;2.72;;;1.80;;
55148;SDS011;49539;48.160;11.530;2022-07-09T03:33:11;3.40;;;1.70;;
55148;SDS011;49539;48.160;11.530;2022-07-09T03:35:37;2.25;;;1.48;;
55148;SDS011;49539;48.160;11.530;2022-07-09T03:38:04;3.78;;;1.98;;
55148;SDS011;49539;48.160;11.530;2022-07-09T03:40:30;4.07;;;1.98;;
55148;SDS011;49539;48.160;11.530;2022-07-09T03:42:55;3.17;;;1.98;;
55148;SDS011;49539;48.160;11.530;2022-07-09T03:45:21;2.40;;;1.60;;
55148;SDS011;49539;48.160;11.530;2022-07-09T03:47:46;7.22;;;2.28;;
55148;SDS011;49539;48.160;11.530;2022-07-09T03:50:13;7.13;;;2.20;;
55148;SDS011;49539;48.160;11.530;2022-07-09T03:52:39;4.13;;;2.00;;
55148;SDS011;49539;48.160;11.530;2022-07-09T03:55:04;3.78;;;1.83;;
55148;SDS011;49539;48.160;11.530;2022-07-09T03:57:30;4.10;;;2.13;;
55148;SDS011;49539;48.160;11.530;2022-07-09T03:59:55;3.63;;;1.63;;
55148;SDS011;49539;48.160;11.530;2022-07-09T04:02:21;5.75;;;1.95;;
55148;SDS011;49539;48.160;11.530;2022-07-09T04:04:47;3.63;;;1.98;;
55148;SDS011;49539;48.160;11.530;2022-07-09T04:07:13;3.05;;;1.80;;
55148;SDS011;49539;48.160;11.530;2022-07-09T04:09:39;4.93;;;1.83;;
55148;SDS011;49539;48.160;11.530;2022-07-09T04:12:04;4.72;;;2.20;;
55148;SDS011;49539;48.160;11.530;2022-07-09T04:14:30;5.53;;;1.85;;
55148;SDS011;49539;48.160;11.530;2022-07-09T04:16:55;3.92;;;2.28;;
55148;SDS011;49539;48.160;11.530;2022-07-09T04:19:21;3.08;;;1.98;;
55148;SDS011;49539;48.160;11.530;2022-07-09T04:21:46;6.57;;;2.47;;
55148;SDS011;49539;48.160;11.530;2022-07-09T04:24:11;4.32;;;2.20;;
55148;SDS011;49539;48.160;11.530;2022-07-09T04:26:37;2.58;;;1.50;;
55148;SDS011;49539;48.160;11.530;2022-07-09T04:29:02;3.47;;;2.00;;
55148;SDS011;49539;48.160;11.530;2022-07-09T04:31:28;2.60;;;1.52;;
55148;SDS011;49539;48.160;11.530;2022-07-09T04:33:53;3.83;;;1.85;;
55148;SDS011;49539;48.160;11.530;2022-07-09T04:36:18;3.67;;;1.92;;
55148;SDS011;49539;48.160;11.530;2022-07-09T04:38:44;3.60;;;2.00;;
55148;SDS011;49539;48.160;11.530;2022-07-09T04:41:09;4.35;;;2.25;;
55148;SDS011;49539;48.160;11.530;2022-07-09T04:43:35;4.85;;;1.80;;
55148;SDS011;49539;48.160;11.530;2022-07-09T04:46:00;4.43;;;2.00;;
55148;SDS011;49539;48.160;11.530;2022-07-09T04:48:26;3.17;;;1.95;;
55148;SDS011;49539;48.160;11.530;2022-07-09T04:50:51;3.97;;;2.30;;
55148;SDS011;49539;48.160;11.530;2022-07-09T04:53:17;7.03;;;1.92;;
55148;SDS011;49539;48.160;11.530;2022-07-09T04:55:42;4.97;;;2.42;;
55148;SDS011;49539;48.160;11.530;2022-07-09T04:58:08;3.38;;;1.90;;
55148;SDS011;49539;48.160;11.530;2022-07-09T05:00:33;4.32;;;2.30;;
55148;SDS011;49539;48.160;11.530;2022-07-09T05:02:59;8.18;;;2.22;;
55148;SDS011;49539;48.160;11.530;2022-07-09T05:05:24;4.25;;;2.35;;
55148;SDS011;49539;48.160;11.530;2022-07-09T05:07:50;3.53;;;2.08;;
55148;SDS011;49539;48.160;11.530;2022-07-09T05:10:16;4.20;;;2.20;;
55148;SDS011;49539;48.160;11.530;2022-07-09T05:12:42;5.00;;;2.58;;
55148;SDS011;49539;48.160;11.530;2022-07-09T05:15:08;4.22;;;2.10;;
55148;SDS011;49539;48.160;11.530;2022-07-09T05:17:34;8.57;;;2.60;;
55148;SDS011;49539;48.160;11.530;2022-07-09T05:20:01;3.00;;;1.98;;
55148;SDS011;49539;48.160;11.530;2022-07-09T05:22:31;7.00;;;1.88;;
55148;SDS011;49539;48.160;11.530;2022-07-09T05:24:58;3.83;;;1.63;;
55148;SDS011;49539;48.160;11.530;2022-07-09T05:27:23;4.80;;;1.67;;
55148;SDS011;49539;48.160;11.530;2022-07-09T05:29:49;3.65;;;1.90;;
55148;SDS011;49539;48.160;11.530;2022-07-09T05:32:15;4.32;;;1.85;;
55148;SDS011;49539;48.160;11.530;2022-07-09T05:34:41;5.20;;;1.92;;
55148;SDS011;49539;48.160;11.530;2022-07-09T05:37:06;4.82;;;2.00;;
55148;SDS011;49539;48.160;11.530;2022-07-09T05:39:32;4.45;;;2.08;;
55148;SDS011;49539;48.160;11.530;2022-07-09T05:41:57;5.60;;;2.40;;
55148;SDS011;49539;48.160;11.530;2022-07-09T05:44:23;4.80;;;2.55;;
55148;SDS011;49539;48.160;11.530;2022-07-09T05:46:48;4.28;;;2.00;;
55148;SDS011;49539;48.160;11.530;2022-07-09T05:49:13;6.10;;;2.22;;
55148;SDS011;49539;48.160;11.530;2022-07-09T05:51:39;3.08;;;1.90;;
55148;SDS011;49539;48.160;11.530;2022-07-09T05:54:05;4.65;;;1.77;;
55148;SDS011;49539;48.160;11.530;2022-07-09T05:56:31;3.20;;;1.90;;
55148;SDS011;49539;48.160;11.530;2022-07-09T05:58:56;5.57;;;2.42;;
55148;SDS011;49539;48.160;11.530;2022-07-09T06:01:22;6.47;;;2.47;;
55148;SDS011;49539;48.160;11.530;2022-07-09T06:03:47;2.88;;;2.08;;
55148;SDS011;49539;48.160;11.530;2022-07-09T06:06:13;4.35;;;2.05;;
55148;SDS011;49539;48.160;11.530;2022-07-09T06:08:38;5.63;;;1.70;;
55148;SDS011;49539;48.160;11.530;2022-07-09T06:11:04;4.20;;;1.92;;
55148;SDS011;49539;48.160;11.530;2022-07-09T06:13:29;3.72;;;1.75;;
55148;SDS011;49539;48.160;11.530;2022-07-09T06:15:55;6.03;;;2.28;;
55148;SDS011;49539;48.160;11.530;2022-07-09T06:18:20;4.97;;;1.80;;
55148;SDS011;49539;48.160;11.530;2022-07-09T06:20:47;2.95;;;1.80;;
55148;SDS011;49539;48.160;11.530;2022-07-09T06:23:12;6.53;;;2.17;;
55148;SDS011;49539;48.160;11.530;2022-07-09T06:25:38;8.95;;;2.45;;
55148;SDS011;49539;48.160;11.530;2022-07-09T06:28:04;3.30;;;1.70;;
55148;SDS011;49539;48.160;11.530;2022-07-09T06:30:31;3.95;;;1.80;;
55148;SDS011;49539;48.160;11.530;2022-07-09T06:32:57;4.30;;;2.10;;
55148;SDS011;49539;48.160;11.530;2022-07-09T06:35:22;4.68;;;1.98;;
55148;SDS011;49539;48.160;11.530;2022-07-09T06:37:48;3.63;;;1.75;;
55148;SDS011;49539;48.160;11.530;2022-07-09T06:40:13;4.10;;;1.75;;
55148;SDS011;49539;48.160;11.530;2022-07-09T06:42:39;1.88;;;1.30;;
55148;SDS011;49539;48.160;11.530;2022-07-09T06:45:05;5.80;;;1.85;;
55148;SDS011;49539;48.160;11.530;2022-07-09T06:47:31;6.63;;;2.30;;
55148;SDS011;49539;48.160;11.530;2022-07-09T06:49:56;5.30;;;1.95;;
55148;SDS011;49539;48.160;11.530;2022-07-09T06:52:22;5.85;;;1.92;;
55148;SDS011;49539;48.160;11.530;2022-07-09T06:54:47;2.80;;;1.60;;
55148;SDS011;49539;48.160;11.530;2022-07-09T06:57:12;4.15;;;1.75;;
55148;SDS011;49539;48.160;11.530;2022-07-09T06:59:39;5.93;;;1.70;;
55148;SDS011;49539;48.160;11.530;2022-07-09T07:02:05;4.00;;;1.58;;
55148;SDS011;49539;48.160;11.530;2022-07-09T07:04:30;5.82;;;1.92;;
55148;SDS011;49539;48.160;11.530;2022-07-09T07:06:56;4.53;;;1.90;;
55148;SDS011;49539;48.160;11.530;2022-07-09T07:09:21;4.82;;;1.85;;
55148;SDS011;49539;48.160;11.530;2022-07-09T07:11:47;2.65;;;1.60;;
55148;SDS011;49539;48.160;11.530;2022-07-09T07:14:13;4.20;;;1.70;;
55148;SDS011;49539;48.160;11.530;2022-07-09T07:16:39;3.75;;;2.10;;
55148;SDS011;49539;48.160;11.530;2022-07-09T07:19:05;4.53;;;1.80;;
55148;SDS011;49539;48.160;11.530;2022-07-09T07:21:30;4.63;;;1.63;;
55148;SDS011;49539;48.160;11.530;2022-07-09T07:23:56;3.90;;;1.88;;
55148;SDS011;49539;48.160;11.530;2022-07-09T07:26:21;2.30;;;1.63;;
55148;SDS011;49539;48.160;11.530;2022-07-09T07:28:46;2.25;;;1.38;;
55148;SDS011;49539;48.160;11.530;2022-07-09T07:31:14;6.07;;;1.90;;
55148;SDS011;49539;48.160;11.530;2022-07-09T07:33:39;3.15;;;1.48;;
55148;SDS011;49539;48.160;11.530;2022-07-09T07:36:05;4.97;;;2.20;;
55148;SDS011;49539;48.160;11.530;2022-07-09T07:38:30;2.92;;;1.55;;
55148;SDS011;49539;48.160;11.530;2022-07-09T07:40:56;3.53;;;1.90;;
55148;SDS011;49539;48.160;11.530;2022-07-09T07:43:21;4.13;;;1.67;;
55148;SDS011;49539;48.160;11.530;2022-07-09T07:45:47;4.30;;;1.35;;
55148;SDS011;49539;48.160;11.530;2022-07-09T07:48:12;3.55;;;1.55;;
55148;SDS011;49539;48.160;11.530;2022-07-09T07:50:38;2.92;;;1.67;;
55148;SDS011;49539;48.160;11.530;2022-07-09T07:53:06;3.42;;;1.88;;
55148;SDS011;49539;48.160;11.530;2022-07-09T07:55:32;2.35;;;1.50;;
55148;SDS011;49539;48.160;11.530;2022-07-09T07:57:58;10.85;;;1.67;;
55148;SDS011;49539;48.160;11.530;2022-07-09T08:00:23;2.38;;;1.20;;
55148;SDS011;49539;48.160;11.530;2022-07-09T08:02:49;4.82;;;1.83;;
55148;SDS011;49539;48.160;11.530;2022-07-09T08:05:14;3.72;;;1.70;;
55148;SDS011;49539;48.160;11.530;2022-07-09T08:07:40;6.60;;;2.13;;
55148;SDS011;49539;48.160;11.530;2022-07-09T08:10:05;4.05;;;1.90;;
55148;SDS011;49539;48.160;11.530;2022-07-09T08:12:31;3.25;;;1.67;;
55148;SDS011;49539;48.160;11.530;2022-07-09T08:14:59;3.13;;;1.50;;
55148;SDS011;49539;48.160;11.530;2022-07-09T08:17:25;4.47;;;1.50;;
55148;SDS011;49539;48.160;11.530;2022-07-09T08:19:50;3.72;;;1.65;;
55148;SDS011;49539;48.160;11.530;2022-07-09T08:22:16;3.67;;;1.30;;
55148;SDS011;49539;48.160;11.530;2022-07-09T08:24:42;2.72;;;1.10;;
55148;SDS011;49539;48.160;11.530;2022-07-09T08:27:07;2.63;;;1.73;;
55148;SDS011;49539;48.160;11.530;2022-07-09T08:29:32;5.38;;;1.73;;
55148;SDS011;49539;48.160;11.530;2022-07-09T08:31:58;2.00;;;1.50;;
55148;SDS011;49539;48.160;11.530;2022-07-09T08:34:23;3.58;;;1.50;;
55148;SDS011;49539;48.160;11.530;2022-07-09T08:36:48;5.45;;;1.52;;
55148;SDS011;49539;48.160;11.530;2022-07-09T08:39:14;2.08;;;1.23;;
55148;SDS011;49539;48.160;11.530;2022-07-09T08:41:40;3.60;;;1.35;;
55148;SDS011;49539;48.160;11.530;2022-07-09T08:44:09;4.82;;;1.42;;
55148;SDS011;49539;48.160;11.530;2022-07-09T08:46:36;3.38;;;1.52;;
55148;SDS011;49539;48.160;11.530;2022-07-09T08:49:01;3.42;;;1.15;;
55148;SDS011;49539;48.160;11.530;2022-07-09T08:51:28;3.47;;;1.45;;
55148;SDS011;49539;48.160;11.530;2022-07-09T08:53:55;3.38;;;1.33;;
55148;SDS011;49539;48.160;11.530;2022-07-09T08:56:20;3.17;;;1.25;;
55148;SDS011;49539;48.160;11.530;2022-07-09T08:58:46;3.83;;;1.30;;
55148;SDS011;49539;48.160;11.530;2022-07-09T09:01:12;3.50;;;1.40;;
55148;SDS011;49539;48.160;11.530;2022-07-09T09:03:39;4.05;;;1.45;;
55148;SDS011;49539;48.160;11.530;2022-07-09T09:08:34;6.10;;;1.67;;
55148;SDS011;49539;48.160;11.530;2022-07-09T09:11:05;4.85;;;1.70;;
55148;SDS011;49539;48.160;11.530;2022-07-09T09:13:41;2.45;;;1.67;;
55148;SDS011;49539;48.160;11.530;2022-07-09T09:16:09;3.60;;;1.63;;
55148;SDS011;49539;48.160;11.530;2022-07-09T09:18:36;8.73;;;1.88;;
55148;SDS011;49539;48.160;11.530;2022-07-09T09:21:21;5.13;;;2.03;;
55148;SDS011;49539;48.160;11.530;2022-07-09T09:23:48;3.72;;;1.52;;
55148;SDS011;49539;48.160;11.530;2022-07-09T09:26:24;11.13;;;1.50;;
55148;SDS011;49539;48.160;11.530;2022-07-09T09:28:52;2.67;;;1.10;;
55148;SDS011;49539;48.160;11.530;2022-07-09T09:33:51;2.85;;;1.40;;
55148;SDS011;49539;48.160;11.530;2022-07-09T09:38:52;3.25;;;1.33;;
55148;SDS011;49539;48.160;11.530;2022-07-09T09:41:21;3.33;;;1.45;;
55148;SDS011;49539;48.160;11.530;2022-07-09T09:43:50;2.28;;;1.65;;
55148;SDS011;49539;48.160;11.530;2022-07-09T09:46:20;2.88;;;1.38;;
55148;SDS011;49539;48.160;11.530;2022-07-09T09:48:46;5.10;;;1.35;;
55148;SDS011;49539;48.160;11.530;2022-07-09T09:51:14;2.65;;;1.50;;
55148;SDS011;49539;48.160;11.530;2022-07-09T09:53:44;3.22;;;1.50;;
55148;SDS011;49539;48.160;11.530;2022-07-09T09:56:11;6.60;;;1.80;;
55148;SDS011;49539;48.160;11.530;2022-07-09T09:58:37;3.05;;;1.20;;
55148;SDS011;49539;48.160;11.530;2022-07-09T10:01:03;4.30;;;1.30;;
55148;SDS011;49539;48.160;11.530;2022-07-09T10:03:29;4.82;;;1.20;;
55148;SDS011;49539;48.160;11.530;2022-07-09T10:05:55;1.80;;;1.05;;
55148;SDS011;49539;48.160;11.530;2022-07-09T10:08:20;3.85;;;1.50;;
55148;SDS011;49539;48.160;11.530;2022-07-09T10:10:52;2.55;;;1.40;;
55148;SDS011;49539;48.160;11.530;2022-07-09T10:13:23;3.78;;;1.80;;
55148;SDS011;49539;48.160;11.530;2022-07-09T10:15:49;4.57;;;1.63;;
55148;SDS011;49539;48.160;11.530;2022-07-09T10:18:17;2.28;;;1.20;;
55148;SDS011;49539;48.160;11.530;2022-07-09T10:20:43;2.97;;;1.60;;
55148;SDS011;49539;48.160;11.530;2022-07-09T10:23:09;2.10;;;1.50;;
55148;SDS011;49539;48.160;11.530;2022-07-09T10:25:45;3.80;;;1.40;;
55148;SDS011;49539;48.160;11.530;2022-07-09T10:28:17;3.58;;;1.25;;
55148;SDS011;49539;48.160;11.530;2022-07-09T10:30:43;4.43;;;2.70;;
55148;SDS011;49539;48.160;11.530;2022-07-09T10:33:12;10.50;;;3.58;;
55148;SDS011;49539;48.160;11.530;2022-07-09T10:35:42;4.25;;;1.73;;
55148;SDS011;49539;48.160;11.530;2022-07-09T10:38:10;5.22;;;1.60;;
55148;SDS011;49539;48.160;11.530;2022-07-09T10:40:40;4.05;;;1.30;;
55148;SDS011;49539;48.160;11.530;2022-07-09T10:43:10;3.25;;;1.42;;
55148;SDS011;49539;48.160;11.530;2022-07-09T10:45:37;5.55;;;1.73;;
55148;SDS011;49539;48.160;11.530;2022-07-09T10:48:08;4.25;;;1.45;;
55148;SDS011;49539;48.160;11.530;2022-07-09T10:50:38;3.15;;;1.42;;
55148;SDS011;49539;48.160;11.530;2022-07-09T10:53:05;1.55;;;1.13;;
55148;SDS011;49539;48.160;11.530;2022-07-09T10:55:32;3.60;;;1.52;;
55148;SDS011;49539;48.160;11.530;2022-07-09T10:57:58;3.33;;;1.40;;
55148;SDS011;49539;48.160;11.530;2022-07-09T11:00:24;3.90;;;1.40;;
55148;SDS011;49539;48.160;11.530;2022-07-09T11:02:58;2.35;;;1.10;;
55148;SDS011;49539;48.160;11.530;2022-07-09T11:05:27;2.42;;;1.02;;
55148;SDS011;49539;48.160;11.530;2022-07-09T11:08:04;2.65;;;0.90;;
55148;SDS011;49539;48.160;11.530;2022-07-09T11:10:31;2.58;;;1.10;;
55148;SDS011;49539;48.160;11.530;2022-07-09T11:12:59;2.83;;;1.10;;
55148;SDS011;49539;48.160;11.530;2022-07-09T11:15:26;3.20;;;1.10;;
55148;SDS011;49539;48.160;11.530;2022-07-09T11:23:04;1.15;;;0.85;;
55148;SDS011;49539;48.160;11.530;2022-07-09T11:25:30;2.50;;;1.40;;
55148;SDS011;49539;48.160;11.530;2022-07-09T11:27:56;2.60;;;1.42;;
55148;SDS011;49539;48.160;11.530;2022-07-09T11:30:23;4.38;;;1.35;;
55148;SDS011;49539;48.160;11.530;2022-07-09T11:32:49;2.97;;;1.40;;
55148;SDS011;49539;48.160;11.530;2022-07-09T11:35:28;4.47;;;2.28;;
55148;SDS011;49539;48.160;11.530;2022-07-09T11:37:56;5.15;;;1.70;;
55148;SDS011;49539;48.160;11.530;2022-07-09T11:40:23;2.00;;;1.30;;
55148;SDS011;49539;48.160;11.530;2022-07-09T11:42:49;2.58;;;1.10;;
55148;SDS011;49539;48.160;11.530;2022-07-09T11:45:19;1.85;;;1.10;;
55148;SDS011;49539;48.160;11.530;2022-07-09T11:47:45;2.90;;;1.35;;
55148;SDS011;49539;48.160;11.530;2022-07-09T11:50:12;2.40;;;1.10;;
55148;SDS011;49539;48.160;11.530;2022-07-09T11:52:49;1.67;;;0.80;;
55148;SDS011;49539;48.160;11.530;2022-07-09T11:55:19;2.20;;;1.00;;
55148;SDS011;49539;48.160;11.530;2022-07-09T11:57:56;2.10;;;1.00;;
55148;SDS011;49539;48.160;11.530;2022-07-09T12:00:26;1.92;;;1.17;;
55148;SDS011;49539;48.160;11.530;2022-07-09T12:02:54;1.70;;;1.00;;
55148;SDS011;49539;48.160;11.530;2022-07-09T12:05:24;2.10;;;1.00;;
55148;SDS011;49539;48.160;11.530;2022-07-09T12:07:57;2.03;;;1.10;;
55148;SDS011;49539;48.160;11.530;2022-07-09T12:10:24;2.80;;;0.93;;
55148;SDS011;49539;48.160;11.530;2022-07-09T12:12:55;4.28;;;1.13;;
55148;SDS011;49539;48.160;11.530;2022-07-09T12:15:21;2.83;;;1.20;;
55148;SDS011;49539;48.160;11.530;2022-07-09T12:17:57;2.33;;;1.15;;
55148;SDS011;49539;48.160;11.530;2022-07-09T12:20:24;3.35;;;1.05;;
55148;SDS011;49539;48.160;11.530;2022-07-09T12:22:50;2.97;;;1.25;;
55148;SDS011;49539;48.160;11.530;2022-07-09T12:25:16;4.50;;;1.08;;
55148;SDS011;49539;48.160;11.530;2022-07-09T12:27:42;1.83;;;1.00;;
55148;SDS011;49539;48.160;11.530;2022-07-09T12:30:08;1.70;;;1.00;;
55148;SDS011;49539;48.160;11.530;2022-07-09T12:32:34;5.03;;;1.45;;
55148;SDS011;49539;48.160;11.530;2022-07-09T12:35:00;2.38;;;0.90;;
55148;SDS011;49539;48.160;11.530;2022-07-09T12:37:26;2.70;;;0.70;;
55148;SDS011;49539;48.160;11.530;2022-07-09T12:39:51;3.95;;;0.90;;
55148;SDS011;49539;48.160;11.530;2022-07-09T12:42:19;1.48;;;0.80;;
55148;SDS011;49539;48.160;11.530;2022-07-09T12:44:44;0.65;;;0.52;;
55148;SDS011;49539;48.160;11.530;2022-07-09T12:47:10;2.60;;;1.10;;
55148;SDS011;49539;48.160;11.530;2022-07-09T12:49:35;4.75;;;0.70;;
55148;SDS011;49539;48.160;11.530;2022-07-09T12:52:01;1.15;;;0.80;;
55148;SDS011;49539;48.160;11.530;2022-07-09T12:54:26;1.23;;;0.85;;
55148;SDS011;49539;48.160;11.530;2022-07-09T12:56:52;5.40;;;0.90;;
55148;SDS011;49539;48.160;11.530;2022-07-09T12:59:17;1.10;;;0.80;;
55148;SDS011;49539;48.160;11.530;2022-07-09T13:01:44;2.08;;;0.80;;
55148;SDS011;49539;48.160;11.530;2022-07-09T13:04:09;4.55;;;1.10;;
55148;SDS011;49539;48.160;11.530;2022-07-09T13:06:35;3.08;;;0.82;;
55148;SDS011;49539;48.160;11.530;2022-07-09T13:09:04;1.75;;;0.65;;
55148;SDS011;49539;48.160;11.530;2022-07-09T13:11:31;3.03;;;1.30;;
55148;SDS011;49539;48.160;11.530;2022-07-09T13:13:57;5.10;;;1.10;;
55148;SDS011;49539;48.160;11.530;2022-07-09T13:16:23;1.38;;;0.80;;
55148;SDS011;49539;48.160;11.530;2022-07-09T13:18:49;4.32;;;1.15;;
55148;SDS011;49539;48.160;11.530;2022-07-09T13:21:16;3.97;;;1.02;;
55148;SDS011;49539;48.160;11.530;2022-07-09T13:23:42;2.53;;;0.93;;
55148;SDS011;49539;48.160;11.530;2022-07-09T13:26:07;3.25;;;1.10;;
55148;SDS011;49539;48.160;11.530;2022-07-09T13:28:33;2.50;;;0.70;;
55148;SDS011;49539;48.160;11.530;2022-07-09T13:30:59;3.60;;;1.15;;
55148;SDS011;49539;48.160;11.530;2022-07-09T13:33:24;1.60;;;1.05;;
55148;SDS011;49539;48.160;11.530;2022-07-09T13:35:49;2.63;;;1.02;;
55148;SDS011;49539;48.160;11.530;2022-07-09T13:38:15;1.42;;;0.80;;
55148;SDS011;49539;48.160;11.530;2022-07-09T13:40:40;2.22;;;0.77;;
55148;SDS011;49539;48.160;11.530;2022-07-09T13:43:06;1.30;;;0.70;;
55148;SDS011;49539;48.160;11.530;2022-07-09T13:45:31;2.35;;;1.08;;
55148;SDS011;49539;48.160;11.530;2022-07-09T13:47:57;1.52;;;0.77;;
55148;SDS011;49539;48.160;11.530;2022-07-09T13:50:23;0.75;;;0.60;;
55148;SDS011;49539;48.160;11.530;2022-07-09T13:52:48;2.03;;;0.82;;
55148;SDS011;49539;48.160;11.530;2022-07-09T13:55:14;1.35;;;0.70;;
55148;SDS011;49539;48.160;11.530;2022-07-09T13:57:39;1.48;;;0.75;;
55148;SDS011;49539;48.160;11.530;2022-07-09T14:00:05;3.80;;;0.90;;
55148;SDS011;49539;48.160;11.530;2022-07-09T14:02:31;2.35;;;0.70;;
55148;SDS011;49539;48.160;11.530;2022-07-09T14:05:00;1.88;;;0.88;;
55148;SDS011;49539;48.160;11.530;2022-07-09T14:07:27;2.67;;;1.05;;
55148;SDS011;49539;48.160;11.530;2022-07-09T14:09:53;2.10;;;0.70;;
55148;SDS011;49539;48.160;11.530;2022-07-09T14:12:18;1.88;;;0.70;;
55148;SDS011;49539;48.160;11.530;2022-07-09T14:14:44;1.45;;;0.95;;
55148;SDS011;49539;48.160;11.530;2022-07-09T14:17:10;3.28;;;0.95;;
55148;SDS011;49539;48.160;11.530;2022-07-09T14:19:35;1.58;;;0.90;;
55148;SDS011;49539;48.160;11.530;2022-07-09T14:22:01;2.55;;;0.88;;
55148;SDS011;49539;48.160;11.530;2022-07-09T14:24:26;4.95;;;1.02;;
55148;SDS011;49539;48.160;11.530;2022-07-09T14:26:52;1.58;;;0.90;;
55148;SDS011;49539;48.160;11.530;2022-07-09T14:29:17;2.63;;;1.42;;
55148;SDS011;49539;48.160;11.530;2022-07-09T14:31:44;3.05;;;0.93;;
55148;SDS011;49539;48.160;11.530;2022-07-09T14:34:09;1.30;;;0.82;;
55148;SDS011;49539;48.160;11.530;2022-07-09T14:36:35;1.85;;;0.70;;
55148;SDS011;49539;48.160;11.530;2022-07-09T14:39:01;3.53;;;0.80;;
55148;SDS011;49539;48.160;11.530;2022-07-09T14:41:27;2.10;;;0.70;;